createdAt,value
2019-03-27T00:00:11.415Z,5.30
2019-03-27T00:02:39.348Z,5.30
2019-03-27T00:05:08.234Z,5.20
2019-03-27T00:07:36.834Z,5.20
2019-03-27T00:10:08.494Z,5.20
2019-03-27T00:12:37.936Z,5.20
2019-03-27T00:15:13.309Z,5.20
2019-03-27T00:17:41.332Z,5.20
2019-03-27T00:20:11.871Z,5.20
2019-03-27T00:22:40.542Z,5.20
2019-03-27T00:25:10.304Z,5.20
2019-03-27T00:27:38.915Z,5.20
2019-03-27T00:30:09.877Z,5.10
2019-03-27T00:32:38.568Z,5.10
2019-03-27T00:35:08.223Z,5.00
2019-03-27T00:37:36.874Z,5.00
2019-03-27T00:40:06.487Z,5.00
2019-03-27T00:42:35.148Z,5.00
2019-03-27T00:45:08.347Z,4.90
2019-03-27T00:47:36.998Z,4.90
2019-03-27T00:50:10.065Z,4.90
2019-03-27T00:52:38.737Z,4.80
2019-03-27T00:55:08.550Z,4.80
2019-03-27T00:57:37.584Z,4.80
2019-03-27T01:00:26.215Z,4.70
2019-03-27T01:02:54.985Z,4.70
2019-03-27T01:05:23.589Z,4.70
2019-03-27T01:07:52.191Z,4.70
2019-03-27T01:10:20.839Z,4.70
2019-03-27T01:12:49.490Z,4.70
2019-03-27T01:15:18.142Z,4.60
2019-03-27T01:17:46.815Z,4.60
2019-03-27T01:20:15.476Z,4.60
2019-03-27T01:22:44.324Z,4.70
2019-03-27T01:25:13.116Z,4.60
2019-03-27T01:27:41.721Z,4.60
2019-03-27T01:30:10.905Z,4.60
2019-03-27T01:32:39.561Z,4.60
2019-03-27T01:35:08.421Z,4.60
2019-03-27T01:37:37.074Z,4.60
2019-03-27T01:40:06.386Z,4.60
2019-03-27T01:42:35.034Z,4.50
2019-03-27T01:45:06.645Z,4.50
2019-03-27T01:47:35.465Z,4.50
2019-03-27T01:50:07.144Z,4.50
2019-03-27T01:52:35.875Z,4.50
2019-03-27T01:55:06.192Z,4.50
2019-03-27T01:57:34.853Z,4.50
2019-03-27T02:00:05.515Z,4.40
2019-03-27T02:02:34.120Z,4.50
2019-03-27T02:05:03.443Z,4.50
2019-03-27T02:07:32.098Z,4.50
2019-03-27T02:10:00.702Z,4.40
2019-03-27T02:12:29.348Z,4.40
2019-03-27T02:14:57.951Z,4.40
2019-03-27T02:17:26.602Z,4.40
2019-03-27T02:19:55.259Z,4.40
2019-03-27T02:22:25.677Z,4.40
2019-03-27T02:24:54.315Z,4.30
2019-03-27T02:27:22.922Z,4.30
2019-03-27T02:29:51.568Z,4.30
2019-03-27T02:32:20.928Z,4.30
2019-03-27T02:34:49.806Z,4.20
2019-03-27T02:37:18.527Z,4.20
2019-03-27T02:39:47.172Z,4.30
2019-03-27T02:42:15.776Z,4.30
2019-03-27T02:44:44.420Z,4.30
2019-03-27T02:47:13.028Z,4.20
2019-03-27T02:49:41.682Z,4.20
2019-03-27T02:52:10.287Z,4.30
2019-03-27T02:54:38.889Z,4.30
2019-03-27T02:57:07.572Z,4.30
2019-03-27T02:59:36.282Z,4.30
2019-03-27T03:02:05.225Z,4.30
2019-03-27T03:04:33.929Z,4.30
2019-03-27T03:07:02.540Z,4.30
2019-03-27T03:09:31.257Z,4.20
2019-03-27T03:11:59.861Z,4.30
2019-03-27T03:14:28.507Z,4.30
2019-03-27T03:16:57.124Z,4.40
2019-03-27T03:19:25.838Z,4.40
2019-03-27T03:21:54.519Z,4.40
2019-03-27T03:24:23.129Z,4.50
2019-03-27T03:26:51.804Z,4.50
2019-03-27T03:29:20.524Z,4.50
2019-03-27T03:31:49.163Z,4.50
2019-03-27T03:34:17.846Z,4.50
2019-03-27T03:36:46.579Z,4.50
2019-03-27T03:39:15.167Z,4.50
2019-03-27T03:41:43.992Z,4.50
2019-03-27T03:44:12.592Z,4.50
2019-03-27T03:46:58.405Z,4.60
2019-03-27T03:49:11.701Z,4.60
2019-03-27T03:51:40.356Z,4.70
2019-03-27T03:54:09.396Z,4.70
2019-03-27T03:56:40.959Z,4.70
2019-03-27T03:59:14.464Z,4.80
2019-03-27T04:01:44.306Z,4.90
2019-03-27T04:04:14.183Z,4.90
2019-03-27T04:06:42.834Z,5.00
2019-03-27T04:09:11.487Z,5.00
2019-03-27T04:11:40.120Z,5.00
2019-03-27T04:14:08.775Z,5.00
2019-03-27T04:16:37.382Z,5.00
2019-03-27T04:19:06.072Z,4.90
2019-03-27T04:21:34.677Z,4.90
2019-03-27T04:24:03.657Z,4.90
2019-03-27T04:26:33.687Z,4.90
2019-03-27T04:29:02.572Z,4.90
2019-03-27T04:31:31.171Z,4.90
2019-03-27T04:33:59.830Z,4.90
2019-03-27T04:36:28.435Z,4.80
2019-03-27T04:38:57.036Z,4.80
2019-03-27T04:41:25.687Z,4.80
2019-03-27T04:43:54.337Z,4.90
2019-03-27T04:46:23.073Z,4.80
2019-03-27T04:48:51.672Z,4.90
2019-03-27T04:51:20.272Z,4.90
2019-03-27T04:53:48.926Z,4.90
2019-03-27T04:56:17.533Z,5.00
2019-03-27T04:58:46.184Z,5.10
2019-03-27T05:01:14.828Z,5.10
2019-03-27T05:03:43.482Z,5.20
2019-03-27T05:06:12.405Z,5.30
2019-03-27T05:08:41.010Z,5.30
2019-03-27T05:11:09.742Z,5.40
2019-03-27T05:13:38.346Z,5.40
2019-03-27T05:16:06.950Z,5.50
2019-03-27T05:18:35.602Z,5.60
2019-03-27T05:21:04.255Z,5.70
2019-03-27T05:23:32.859Z,5.80
2019-03-27T05:26:01.512Z,5.80
2019-03-27T05:28:30.112Z,5.90
2019-03-27T05:30:58.761Z,6.00
2019-03-27T05:33:27.413Z,6.10
2019-03-27T05:35:56.071Z,6.10
2019-03-27T05:38:24.673Z,6.20
2019-03-27T05:40:53.277Z,6.20
2019-03-27T05:43:22.198Z,6.30
2019-03-27T05:45:51.343Z,6.30
2019-03-27T05:48:20.074Z,6.30
2019-03-27T05:50:48.674Z,6.30
2019-03-27T05:53:17.324Z,6.30
2019-03-27T05:55:45.932Z,6.40
2019-03-27T05:58:14.583Z,6.30
2019-03-27T06:00:43.188Z,6.30
2019-03-27T06:03:11.917Z,6.30
2019-03-27T06:05:40.566Z,6.30
2019-03-27T06:08:09.169Z,6.40
2019-03-27T06:10:37.818Z,6.40
2019-03-27T06:13:06.421Z,6.40
2019-03-27T06:15:35.072Z,6.40
2019-03-27T06:18:12.882Z,6.40
2019-03-27T06:20:34.050Z,6.40
2019-03-27T06:23:02.656Z,6.40
2019-03-27T06:25:31.425Z,6.50
2019-03-27T06:28:00.033Z,6.60
2019-03-27T06:30:28.702Z,6.60
2019-03-27T06:32:57.346Z,6.50
2019-03-27T06:35:25.963Z,6.60
2019-03-27T06:37:54.613Z,6.60
2019-03-27T06:40:23.217Z,6.60
2019-03-27T06:42:51.821Z,6.60
2019-03-27T06:45:20.470Z,6.60
2019-03-27T06:47:49.121Z,6.50
2019-03-27T06:50:17.723Z,6.60
2019-03-27T06:52:46.459Z,6.50
2019-03-27T06:55:15.068Z,6.50
2019-03-27T06:57:43.841Z,6.60
2019-03-27T07:00:12.880Z,6.60
2019-03-27T07:02:41.533Z,6.70
2019-03-27T07:05:10.714Z,6.70
2019-03-27T07:07:39.435Z,6.70
2019-03-27T07:10:08.680Z,6.70
2019-03-27T07:12:37.281Z,6.70
2019-03-27T07:15:06.950Z,6.80
2019-03-27T07:17:35.639Z,6.80
2019-03-27T07:20:06.808Z,6.80
2019-03-27T07:22:35.503Z,6.80
2019-03-27T07:25:07.166Z,6.70
2019-03-27T07:27:35.769Z,6.90
2019-03-27T07:30:06.827Z,6.80
2019-03-27T07:32:35.433Z,6.90
2019-03-27T07:35:05.600Z,6.90
2019-03-27T07:37:34.200Z,6.90
2019-03-27T07:40:03.672Z,6.90
2019-03-27T07:42:32.324Z,6.90
2019-03-27T07:45:01.057Z,7.00
2019-03-27T07:47:29.653Z,7.00
2019-03-27T07:49:58.313Z,7.10
2019-03-27T07:52:26.956Z,7.10
2019-03-27T07:54:55.607Z,7.10
2019-03-27T07:57:24.208Z,7.20
2019-03-27T07:59:52.864Z,7.20
2019-03-27T08:02:21.587Z,7.20
2019-03-27T08:04:50.186Z,7.20
2019-03-27T08:07:26.609Z,7.20
2019-03-27T08:09:49.220Z,7.30
2019-03-27T08:12:17.892Z,7.30
2019-03-27T08:14:46.574Z,7.40
2019-03-27T08:17:15.182Z,7.40
2019-03-27T08:19:43.834Z,7.50
2019-03-27T08:22:12.437Z,7.50
2019-03-27T08:24:41.100Z,7.60
2019-03-27T08:27:09.705Z,7.70
2019-03-27T08:29:38.362Z,7.90
2019-03-27T08:32:06.964Z,7.90
2019-03-27T08:34:35.621Z,8.00
2019-03-27T08:37:04.398Z,8.00
2019-03-27T08:39:33.054Z,8.00
2019-03-27T08:42:01.837Z,8.10
2019-03-27T08:44:30.503Z,8.30
2019-03-27T08:46:59.112Z,8.40
2019-03-27T08:49:27.721Z,8.50
2019-03-27T08:51:56.372Z,8.60
2019-03-27T08:54:24.990Z,8.70
2019-03-27T08:56:53.636Z,8.70
2019-03-27T08:59:22.238Z,8.80
2019-03-27T09:01:50.887Z,8.80
2019-03-27T09:04:19.544Z,8.90
2019-03-27T09:06:48.150Z,9.00
2019-03-27T09:09:16.813Z,9.10
2019-03-27T09:11:45.415Z,9.20
2019-03-27T09:14:14.063Z,9.20
2019-03-27T09:16:42.675Z,9.30
2019-03-27T09:19:11.330Z,9.30
2019-03-27T09:21:39.934Z,9.50
2019-03-27T09:24:08.603Z,9.50
2019-03-27T09:26:37.213Z,9.60
2019-03-27T09:29:08.377Z,9.50
2019-03-27T09:31:44.889Z,9.50
2019-03-27T09:34:07.449Z,9.30
2019-03-27T09:36:36.056Z,9.40
2019-03-27T09:39:08.885Z,9.40
2019-03-27T09:41:37.632Z,9.50
2019-03-27T09:44:06.286Z,9.60
2019-03-27T09:46:34.941Z,9.80
2019-03-27T09:49:03.759Z,9.80
2019-03-27T09:51:32.436Z,9.80
2019-03-27T09:54:01.099Z,9.80
2019-03-27T09:56:29.706Z,9.70
2019-03-27T09:58:58.309Z,9.50
2019-03-27T10:01:26.967Z,9.70
2019-03-27T10:03:55.576Z,9.60
2019-03-27T10:06:24.236Z,9.60
2019-03-27T10:08:52.840Z,9.50
2019-03-27T10:11:23.885Z,9.50
2019-03-27T10:13:51.832Z,9.50
2019-03-27T10:16:20.558Z,9.60
2019-03-27T10:18:49.160Z,9.60
2019-03-27T10:21:17.775Z,9.70
2019-03-27T10:23:46.427Z,9.80
2019-03-27T10:26:15.100Z,9.90
2019-03-27T10:28:43.703Z,9.90
2019-03-27T10:31:12.308Z,9.90
2019-03-27T10:33:40.968Z,10.10
2019-03-27T10:36:09.620Z,10.00
2019-03-27T10:38:41.467Z,10.10
2019-03-27T10:41:08.654Z,10.20
2019-03-27T10:43:37.314Z,10.20
2019-03-27T10:46:05.997Z,10.00
2019-03-27T10:48:34.657Z,10.00
2019-03-27T10:51:03.371Z,10.10
2019-03-27T10:53:32.031Z,10.00
2019-03-27T10:56:00.639Z,10.00
2019-03-27T10:58:29.296Z,10.00
2019-03-27T11:00:57.913Z,10.00
2019-03-27T11:03:26.570Z,10.10
2019-03-27T11:05:55.226Z,10.10
2019-03-27T11:08:23.833Z,10.00
2019-03-27T11:10:52.552Z,10.10
2019-03-27T11:13:21.162Z,10.20
2019-03-27T11:15:49.817Z,10.10
2019-03-27T11:18:18.426Z,10.00
2019-03-27T11:20:47.088Z,10.10
2019-03-27T11:23:15.696Z,10.00
2019-03-27T11:25:44.360Z,10.00
2019-03-27T11:28:13.051Z,10.00
2019-03-27T11:30:42.214Z,10.20
2019-03-27T11:33:11.349Z,10.30
2019-03-27T11:35:40.157Z,10.40
2019-03-27T11:38:08.949Z,10.50
2019-03-27T11:40:37.669Z,10.60
2019-03-27T11:43:06.277Z,10.70
2019-03-27T11:45:34.980Z,10.60
2019-03-27T11:48:04.051Z,10.50
2019-03-27T11:50:44.086Z,10.40
2019-03-27T11:53:03.385Z,10.40
2019-03-27T11:55:32.078Z,10.40
2019-03-27T11:58:00.738Z,10.40
2019-03-27T12:00:29.348Z,10.50
2019-03-27T12:02:58.136Z,10.40
2019-03-27T12:05:26.791Z,10.50
2019-03-27T12:07:55.400Z,10.70
2019-03-27T12:10:24.057Z,10.60
2019-03-27T12:12:52.667Z,10.80
2019-03-27T12:15:39.688Z,10.60
2019-03-27T12:18:09.705Z,10.70
2019-03-27T12:20:38.432Z,10.80
2019-03-27T12:23:07.263Z,10.80
2019-03-27T12:25:35.921Z,10.80
2019-03-27T12:28:05.301Z,10.80
2019-03-27T12:30:34.063Z,10.70
2019-03-27T12:33:02.677Z,10.70
2019-03-27T12:35:31.340Z,10.50
2019-03-27T12:37:59.953Z,10.40
2019-03-27T12:40:28.617Z,10.40
2019-03-27T12:42:57.289Z,10.50
2019-03-27T12:45:26.022Z,10.60
2019-03-27T12:47:54.623Z,10.60
2019-03-27T12:50:23.282Z,10.70
2019-03-27T12:52:51.963Z,10.70
2019-03-27T12:55:20.645Z,10.60
2019-03-27T12:57:49.301Z,10.60
2019-03-27T13:00:18.352Z,10.50
2019-03-27T13:02:47.012Z,10.50
2019-03-27T13:05:15.689Z,10.60
2019-03-27T13:07:49.914Z,11.00
2019-03-27T13:10:14.694Z,11.50
2019-03-27T13:12:43.304Z,11.50
2019-03-27T13:15:12.102Z,11.60
2019-03-27T13:17:40.843Z,11.60
2019-03-27T13:20:11.604Z,12.80
2019-03-27T13:22:40.211Z,12.40
2019-03-27T13:25:09.778Z,12.20
2019-03-27T13:27:39.394Z,12.50
2019-03-27T13:30:09.269Z,12.40
2019-03-27T13:32:37.948Z,12.10
2019-03-27T13:35:07.258Z,11.90
2019-03-27T13:37:35.943Z,11.90
2019-03-27T13:40:11.495Z,11.70
2019-03-27T13:42:40.299Z,11.70
2019-03-27T13:45:10.922Z,11.70
2019-03-27T13:47:39.615Z,11.50
2019-03-27T13:50:12.908Z,11.70
2019-03-27T13:52:41.764Z,11.70
2019-03-27T13:55:10.503Z,11.80
2019-03-27T13:57:39.166Z,11.80
2019-03-27T14:00:09.983Z,11.60
2019-03-27T14:02:38.587Z,11.70
2019-03-27T14:05:08.080Z,11.70
2019-03-27T14:07:36.991Z,11.50
2019-03-27T14:10:08.357Z,11.60
2019-03-27T14:12:36.967Z,11.70
2019-03-27T14:15:09.258Z,11.70
2019-03-27T14:17:38.109Z,11.70
2019-03-27T14:20:08.564Z,11.50
2019-03-27T14:22:37.264Z,11.50
2019-03-27T14:25:08.330Z,11.50
2019-03-27T14:27:37.238Z,11.40
2019-03-27T14:30:09.654Z,11.40
2019-03-27T14:32:38.395Z,11.40
2019-03-27T14:35:07.811Z,11.30
2019-03-27T14:37:36.485Z,11.40
2019-03-27T14:40:09.522Z,11.50
2019-03-27T14:42:38.180Z,11.60
2019-03-27T14:45:09.910Z,11.60
2019-03-27T14:47:39.190Z,11.60
2019-03-27T14:50:09.119Z,11.50
2019-03-27T14:52:37.815Z,11.40
2019-03-27T14:55:10.490Z,11.30
2019-03-27T14:57:39.497Z,11.40
2019-03-27T15:00:12.122Z,11.40
2019-03-27T15:02:40.735Z,11.40
2019-03-27T15:05:10.207Z,11.50
2019-03-27T15:07:38.812Z,11.40
2019-03-27T15:10:09.221Z,11.20
2019-03-27T15:12:37.945Z,11.20
2019-03-27T15:15:09.752Z,11.30
2019-03-27T15:17:38.725Z,11.40
2019-03-27T15:20:08.774Z,11.50
2019-03-27T15:22:37.722Z,11.50
2019-03-27T15:25:06.997Z,11.50
2019-03-27T15:27:35.671Z,11.20
2019-03-27T15:30:12.730Z,11.10
2019-03-27T15:32:41.440Z,11.10
2019-03-27T15:35:10.213Z,10.90
2019-03-27T15:37:38.870Z,11.00
2019-03-27T15:40:07.841Z,10.90
2019-03-27T15:42:37.355Z,11.00
2019-03-27T15:45:08.659Z,11.00
2019-03-27T15:47:37.382Z,10.90
2019-03-27T15:50:06.652Z,10.90
2019-03-27T15:52:36.785Z,11.00
2019-03-27T15:55:07.114Z,10.90
2019-03-27T15:57:35.723Z,11.00
2019-03-27T16:00:06.487Z,11.00
2019-03-27T16:02:35.126Z,11.00
2019-03-27T16:05:05.645Z,10.90
2019-03-27T16:07:34.452Z,11.00
2019-03-27T16:10:05.075Z,10.80
2019-03-27T16:12:36.357Z,10.80
2019-03-27T16:15:06.673Z,10.70
2019-03-27T16:17:35.334Z,10.70
2019-03-27T16:20:05.949Z,10.60
2019-03-27T16:22:34.682Z,10.60
2019-03-27T16:25:04.233Z,10.70
2019-03-27T16:27:32.896Z,10.60
2019-03-27T16:30:01.502Z,10.60
2019-03-27T16:32:30.120Z,10.70
2019-03-27T16:34:58.773Z,10.70
2019-03-27T16:37:27.381Z,10.70
2019-03-27T16:39:56.044Z,10.70
2019-03-27T16:42:24.699Z,10.70
2019-03-27T16:44:53.375Z,10.70
2019-03-27T16:47:22.475Z,10.70
2019-03-27T16:49:51.161Z,10.60
2019-03-27T16:52:19.766Z,10.60
2019-03-27T16:54:48.804Z,10.70
2019-03-27T16:57:17.414Z,10.70
2019-03-27T16:59:46.142Z,10.70
2019-03-27T17:02:14.881Z,10.70
2019-03-27T17:04:43.490Z,10.60
2019-03-27T17:07:12.097Z,10.50
2019-03-27T17:09:40.756Z,10.50
2019-03-27T17:12:09.368Z,10.60
2019-03-27T17:14:38.029Z,10.50
2019-03-27T17:17:06.631Z,10.60
2019-03-27T17:19:35.292Z,10.60
2019-03-27T17:22:03.949Z,10.60
2019-03-27T17:24:32.605Z,10.50
2019-03-27T17:27:01.220Z,10.50
2019-03-27T17:29:29.886Z,10.60
2019-03-27T17:31:58.770Z,10.40
2019-03-27T17:34:27.370Z,10.50
2019-03-27T17:36:56.026Z,10.50
2019-03-27T17:39:24.688Z,10.30
2019-03-27T17:41:53.346Z,10.40
2019-03-27T17:44:22.144Z,10.30
2019-03-27T17:46:50.800Z,10.20
2019-03-27T17:49:19.487Z,10.30
2019-03-27T17:51:48.147Z,10.20
2019-03-27T17:54:20.695Z,10.20
2019-03-27T17:56:47.133Z,10.20
2019-03-27T17:59:15.820Z,10.20
2019-03-27T18:01:44.475Z,10.20
2019-03-27T18:04:13.136Z,10.20
2019-03-27T18:06:43.093Z,10.10
2019-03-27T18:09:11.735Z,10.10
2019-03-27T18:11:40.421Z,10.10
2019-03-27T18:14:09.071Z,10.10
2019-03-27T18:16:37.729Z,10.20
2019-03-27T18:19:06.382Z,10.20
2019-03-27T18:21:35.038Z,10.20
2019-03-27T18:24:03.692Z,10.30
2019-03-27T18:26:32.439Z,10.20
2019-03-27T18:29:01.050Z,10.20
2019-03-27T18:31:29.727Z,10.10
2019-03-27T18:33:58.334Z,10.10
2019-03-27T18:36:26.943Z,10.10
2019-03-27T18:38:58.581Z,10.20
2019-03-27T18:41:27.236Z,10.10
2019-03-27T18:43:55.907Z,10.20
2019-03-27T18:46:24.585Z,10.10
2019-03-27T18:48:53.195Z,10.00
2019-03-27T18:51:21.856Z,10.00
2019-03-27T18:53:59.453Z,9.90
2019-03-27T18:56:20.849Z,9.90
2019-03-27T18:58:49.454Z,10.00
2019-03-27T19:01:18.110Z,10.00
2019-03-27T19:03:46.720Z,9.90
2019-03-27T19:06:15.408Z,9.90
2019-03-27T19:08:44.094Z,9.90
2019-03-27T19:11:12.745Z,10.00
2019-03-27T19:13:41.355Z,10.00
2019-03-27T19:16:10.014Z,10.00
2019-03-27T19:18:38.635Z,9.90
2019-03-27T19:21:07.326Z,10.00
2019-03-27T19:23:35.935Z,10.00
2019-03-27T19:26:04.693Z,9.90
2019-03-27T19:28:33.304Z,10.00
2019-03-27T19:31:02.092Z,10.00
2019-03-27T19:33:30.746Z,10.00
2019-03-27T19:35:59.359Z,9.90
2019-03-27T19:38:28.012Z,9.80
2019-03-27T19:40:56.709Z,9.80
2019-03-27T19:43:25.368Z,9.90
2019-03-27T19:45:57.253Z,10.00
2019-03-27T19:48:24.429Z,9.90
2019-03-27T19:50:53.039Z,9.90
2019-03-27T19:53:21.699Z,9.90
2019-03-27T19:55:50.375Z,9.90
2019-03-27T19:58:19.046Z,9.90
2019-03-27T20:00:47.716Z,9.90
2019-03-27T20:03:16.326Z,9.90
2019-03-27T20:05:45.116Z,9.90
2019-03-27T20:08:13.727Z,9.90
2019-03-27T20:10:42.386Z,9.90
2019-03-27T20:13:10.993Z,9.90
2019-03-27T20:15:39.650Z,9.90
2019-03-27T20:18:08.304Z,9.90
2019-03-27T20:20:36.914Z,9.90
2019-03-27T20:23:14.976Z,9.90
2019-03-27T20:25:35.914Z,10.00
2019-03-27T20:28:04.520Z,10.00
2019-03-27T20:30:33.191Z,10.00
2019-03-27T20:33:01.798Z,10.00
2019-03-27T20:35:30.408Z,10.00
2019-03-27T20:37:59.070Z,10.00
2019-03-27T20:40:27.934Z,10.00
2019-03-27T20:42:56.717Z,10.00
2019-03-27T20:45:25.375Z,10.00
2019-03-27T20:47:53.989Z,10.00
2019-03-27T20:50:22.715Z,10.00
2019-03-27T20:52:51.371Z,9.90
2019-03-27T20:55:30.178Z,9.80
2019-03-27T20:57:50.370Z,9.90
2019-03-27T21:00:19.616Z,9.80
2019-03-27T21:02:48.267Z,9.80
2019-03-27T21:05:17.054Z,9.80
2019-03-27T21:07:45.741Z,9.80
2019-03-27T21:10:14.884Z,9.70
2019-03-27T21:12:43.541Z,9.60
2019-03-27T21:15:12.308Z,9.50
2019-03-27T21:17:40.959Z,9.50
2019-03-27T21:20:10.103Z,9.60
2019-03-27T21:22:38.765Z,9.50
2019-03-27T21:25:09.758Z,9.50
2019-03-27T21:27:38.651Z,9.50
2019-03-27T21:30:11.289Z,9.50
2019-03-27T21:32:39.944Z,9.50
2019-03-27T21:35:08.616Z,9.50
2019-03-27T21:37:37.227Z,9.40
2019-03-27T21:40:07.496Z,9.40
2019-03-27T21:42:36.276Z,9.40
2019-03-27T21:45:09.474Z,9.40
2019-03-27T21:47:38.135Z,9.40
2019-03-27T21:50:07.933Z,9.30
2019-03-27T21:52:36.584Z,9.30
2019-03-27T21:55:07.403Z,9.30
2019-03-27T21:57:36.056Z,9.30
2019-03-27T22:00:06.929Z,9.40
2019-03-27T22:02:35.584Z,9.30
2019-03-27T22:05:06.193Z,9.30
2019-03-27T22:07:34.845Z,9.30
2019-03-27T22:10:06.262Z,9.30
2019-03-27T22:12:37.984Z,9.30
2019-03-27T22:15:08.409Z,9.30
2019-03-27T22:17:37.013Z,9.30
2019-03-27T22:20:08.780Z,9.40
2019-03-27T22:22:37.391Z,9.30
2019-03-27T22:25:08.264Z,9.40
2019-03-27T22:27:36.917Z,9.30
2019-03-27T22:30:08.313Z,9.30
2019-03-27T22:32:36.969Z,9.20
2019-03-27T22:35:07.499Z,9.30
2019-03-27T22:37:36.212Z,9.30
2019-03-27T22:40:06.898Z,9.30
2019-03-27T22:42:35.551Z,9.20
2019-03-27T22:45:05.568Z,9.20
2019-03-27T22:47:34.222Z,9.20
2019-03-27T22:50:07.869Z,9.30
2019-03-27T22:52:35.410Z,9.30
2019-03-27T22:55:07.667Z,9.20
2019-03-27T22:57:36.321Z,9.20
2019-03-27T23:00:12.461Z,9.20
2019-03-27T23:02:41.118Z,9.10
2019-03-27T23:05:10.115Z,9.20
2019-03-27T23:07:38.719Z,9.10
2019-03-27T23:10:07.551Z,9.20
2019-03-27T23:12:36.156Z,9.20
2019-03-27T23:15:10.683Z,9.20
2019-03-27T23:17:39.289Z,9.30
2019-03-27T23:20:09.465Z,9.20
2019-03-27T23:22:38.145Z,9.10
2019-03-27T23:25:08.110Z,9.20
2019-03-27T23:27:36.719Z,9.10
2019-03-27T23:30:09.927Z,9.10
2019-03-27T23:32:38.658Z,9.10
2019-03-27T23:35:08.318Z,9.10
2019-03-27T23:37:36.927Z,9.10
2019-03-27T23:40:06.995Z,9.20
2019-03-27T23:42:35.645Z,9.20
2019-03-27T23:45:06.866Z,9.20
2019-03-27T23:47:35.516Z,9.20
2019-03-27T23:50:07.980Z,9.10
2019-03-27T23:52:36.587Z,9.10
2019-03-27T23:55:09.125Z,9.20
2019-03-27T23:57:37.830Z,9.20
